Terminal Aerodrome Forecast
Issued by NWS

Home | Current Version | Previous Version | Text Only | Print | Product List | Glossary On
Versions: 1 2 3 4 5 6 7 8 9 10 11 12 13 14 15 16
000
FTUS46 KSEW 062320
TAFCLM
TAF
KCLM 062320Z 0700/0724 30012KT P6SM BKN200
     FM070600 28008KT P6SM SCT015 SCT200
     FM071100 28008KT P6SM BKN015
     FM071700 28008KT P6SM SCT020 SCT200=

USA.gov is the U.S. government's official web portal to all federal, state and local government web resources and services.